ADDS TAF Board (Experimental) INFO Settings
IDs: Format: Expanded Condensed

KDCA - Washington/National, VA, US

Issued at 1505 UTC 27 May 2016
Updated at: 1607 UTC 27 May 2016
Time1552Z 27/17Z 27/18Z 27/19Z 27/20Z 27/21Z 27/22Z 27/23Z 28/00Z 28/01Z 28/02Z 28/03Z 28/04Z 28/05Z
Type OBS PRVL PRVL PRVL PRVL PRVL PRVL PRVL PRVL PRVL PRVL PRVL PRVL PRVL
VIS 10 >6 >6 >6 >6 >6 >6 >6 >6 >6 >6 >6 >6 >6
CIG 250 -- -- -- -- -- -- -- 80 80 80 80 -- --
Cover BKN SCT SCT SCT SCT SCT SCT SCT BKN BKN BKN BKN SCT SCT
FltCat VFR VFR VFR VFR VFR VFR VFR VFR VFR VFR VFR VFR VFR VFR
WX -- -- VCTS VCTS VCTS VCTS VCTS VCTS -- -- -- -- -- --
WDir 180 180 190 190 190 190 190 190 180 180 180 180 180 180
WSpd 8 6 7 7 7 7 7 7 7 7 7 7 7 7
WGst -- -- -- -- -- -- -- -- -- -- -- -- -- --
R01/19
XWnd 1 1 2 2 2 2 2 2 1 1 1 1 1 1
HWnd -8 -6 -7 -7 -7 -7 -7 -7 -7 -7 -7 -7 -7 -7
R04/22
XWnd -4 -3 -2 -2 -2 -2 -2 -2 -3 -3 -3 -3 -3 -3
HWnd -7 -5 -7 -7 -7 -7 -7 -7 -6 -6 -6 -6 -6 -6
R15/33
XWnd -5 -4 -5 -5 -5 -5 -5 -5 -4 -4 -4 -4 -4 -4
HWnd 6 5 5 5 5 5 5 5 6 6 6 6 6 6

NOTE: TEMPO conditions in [brackets]. Keep in mind TEMPO conditions might be better (lower impact) than prevailing conditions.

Raw TAF
KDCA 271505Z 2715/2812 18006KT P6SM SCT150
  FM271800 19007KT P6SM VCTS SCT050CB
  FM280000 18007KT P6SM BKN080
  FM280400 18007KT P6SM FEW080 SCT200


Raw METAR
KDCA 271552Z 18008KT 10SM FEW040 BKN250 28/21 A3008 RMK AO2 SLP187 T02830206
KDCA 271452Z 18006KT 10SM BKN250 27/21 A3009 RMK AO2 SLP190 T02670206 53001
KDCA 271352Z 17007KT 10SM BKN250 25/19 A3009 RMK AO2 SLP189 T02500194

METAR Board
Radar Display
Forecast Discussion

TAF Board Legend

Potential Impact
Threat None Slight Moderate High
Visibility (sm) ≥5.1 5.1>X≥3 3>X≥1 <1
Ceiling (100 ft) ≥30.1 30.1>X≥10 10>X≥5 <5
Wind Speed (kt) <10 10≤X<20 20≤X<30 ≥30
Wind Gust (kt) <15 15≤X<25 25≤X<35 ≥35
Weather No Wx Reported VCTS,-TS,-FZRA,SN TS,FZRA +TS,+FZRA,+SN